Time;durP1;ratioP1;P1;durP2;ratioP2;P2;SDS_P1;SDS_P2;PMS_P1;PMS_P2;Temp;Humidity;BMP_temperature;BMP_pressure;BME280_temperature;BME280_humidity;BME280_pressure;Samples;Min_cycle;Max_cycle;Signal;HPM_P1;HPM_P2
2023/01/15 00:01:33;;;;;;;4.63;0.50;;;;;;;8.96;90.64;99066.00;8347543;28;20056;-56
2023/01/15 00:05:35;;;;;;;;;;;;;;;8.95;90.74;99077.81;8348223;28;20041;-57
2023/01/15 00:09:35;;;;;;;2.55;0.52;;;;;;;8.87;91.32;99085.84;8348779;28;19948;-58
2023/01/15 00:13:36;;;;;;;4.05;0.43;;;;;;;8.75;92.60;99100.66;8345715;28;20049;-59
2023/01/15 00:17:36;;;;;;;3.08;0.45;;;;;;;8.65;94.41;99095.41;8351821;28;20496;-57
2023/01/15 00:21:37;;;;;;;6.75;0.60;;;;;;;8.55;94.33;99104.63;8356472;28;20064;-59
2023/01/15 00:29:57;;;;;;;4.15;0.50;;;;;;;8.44;94.12;99112.97;8357198;28;20037;-59
2023/01/15 00:33:58;;;;;;;7.20;0.95;;;;;;;8.38;94.02;99119.88;8357993;28;20089;-58
2023/01/15 00:37:59;;;;;;;3.03;0.70;;;;;;;8.33;94.55;99121.38;8358330;28;20124;-58
2023/01/15 00:41:59;;;;;;;1.73;0.45;;;;;;;8.31;94.94;99107.19;8360142;28;20568;-57
2023/01/15 00:45:59;;;;;;;3.15;0.50;;;;;;;8.26;93.67;99106.88;8359436;28;20218;-58
2023/01/15 00:50:00;;;;;;;5.00;0.43;;;;;;;8.25;93.24;99080.94;8359037;28;20048;-60
2023/01/15 00:54:01;;;;;;;1.35;0.60;;;;;;;8.27;92.63;99084.31;8357566;28;20045;-59
2023/01/15 00:58:02;;;;;;;2.20;0.55;;;;;;;8.26;91.74;99074.56;8391438;28;20033;-59
2023/01/15 01:02:03;;;;;;;2.75;0.40;;;;;;;8.27;91.93;99084.31;8358680;28;20033;-60
2023/01/15 01:06:04;;;;;;;0.60;0.40;;;;;;;8.26;91.79;99077.25;8359845;28;20037;-57
2023/01/15 01:10:05;;;;;;;1.73;0.40;;;;;;;8.28;91.13;99076.06;8359622;28;20380;-58
2023/01/15 01:14:05;;;;;;;1.55;0.43;;;;;;;8.33;91.26;99072.91;8358021;28;20037;-59
2023/01/15 01:18:06;;;;;;;3.55;0.40;;;;;;;8.34;90.48;99069.19;8358936;28;20040;-59
2023/01/15 01:22:07;;;;;;;0.45;0.32;;;;;;;8.47;88.03;99080.34;8359375;28;20040;-54
2023/01/15 01:26:09;;;;;;;1.50;0.47;;;;;;;8.55;87.52;99072.31;8357407;28;20406;-55
2023/01/15 01:30:10;;;;;;;0.98;0.30;;;;;;;8.55;86.75;99075.00;8347931;28;20040;-55
2023/01/15 01:34:11;;;;;;;1.70;0.40;;;;;;;8.55;86.54;99066.91;8355046;28;20048;-54
2023/01/15 01:38:12;;;;;;;2.63;0.30;;;;;;;8.60;86.49;99069.97;8358718;28;20041;-55
2023/01/15 01:42:15;;;;;;;1.77;0.30;;;;;;;8.61;85.54;99044.72;8358640;28;20041;-54
2023/01/15 01:46:15;;;;;;;2.95;0.80;;;;;;;8.59;85.24;99070.97;8358305;28;20044;-54
2023/01/15 01:50:17;;;;;;;2.67;0.47;;;;;;;8.57;84.47;99051.44;8358583;28;20037;-54
2023/01/15 01:54:22;;;;;;;2.03;0.43;;;;;;;8.57;84.38;99059.53;8358289;28;20037;-55
2023/01/15 01:58:27;;;;;;;3.78;0.32;;;;;;;8.56;84.27;99077.53;8357306;28;20036;-55
2023/01/15 02:02:28;;;;;;;3.10;0.57;;;;;;;8.54;84.89;99101.09;8367153;28;20591;-55
2023/01/15 02:06:29;;;;;;;5.13;0.50;;;;;;;8.49;84.85;99100.75;8357841;28;20463;-55
2023/01/15 02:10:30;;;;;;;2.28;0.28;;;;;;;8.47;85.19;99088.41;8357958;28;20043;-55
2023/01/15 02:14:49;;;;;;;2.78;0.30;;;;;;;8.43;85.13;99084.38;8352841;28;20080;-55
2023/01/15 02:19:00;;;;;;;3.65;0.55;;;;;;;8.39;85.54;99066.88;8355303;28;20048;-55
2023/01/15 02:23:31;;;;;;;1.48;0.35;;;;;;;8.36;86.26;99086.03;8357175;28;20048;-54
2023/01/15 02:27:32;;;;;;;0.52;0.25;;;;;;;8.32;86.70;99082.00;8339086;28;20045;-55
2023/01/15 02:31:37;;;;;;;1.45;0.20;;;;;;;8.34;87.14;99079.97;8340691;28;20410;-54
2023/01/15 02:35:42;;;;;;;;;;;;;;;8.34;87.28;99079.97;8340418;28;20046;-55
2023/01/15 02:39:46;;;;;;;3.92;0.40;;;;;;;8.34;87.33;99079.97;8338636;28;20394;-55
2023/01/15 02:43:52;;;;;;;3.20;0.47;;;;;;;8.34;87.90;99077.28;8340134;28;20045;-53
2023/01/15 02:48:00;;;;;;;2.08;0.30;;;;;;;8.32;88.68;99079.31;8341793;28;20041;-56
2023/01/15 02:52:07;;;;;;;3.60;0.60;;;;;;;8.34;88.31;99071.88;8337273;28;20049;-55
2023/01/15 02:56:12;;;;;;;4.13;0.60;;;;;;;8.42;87.46;99061.97;8338741;28;20041;-55
2023/01/15 03:00:21;;;;;;;2.95;0.40;;;;;;;8.51;87.23;99076.34;8325723;28;20047;-55
2023/01/15 03:04:31;;;;;;;2.80;0.35;;;;;;;8.58;85.29;99063.91;8295527;28;20120;-55
2023/01/15 03:08:32;;;;;;;3.90;0.73;;;;;;;8.62;84.98;99078.72;8320472;28;20045;-56
2023/01/15 03:13:15;;;;;;;4.20;0.50;;;;;;;8.60;85.82;99080.75;8322206;28;20048;-55
2023/01/15 03:17:33;;;;;;;5.47;0.68;;;;;;;8.61;84.44;99045.56;8336155;28;20057;-54
2023/01/15 03:21:47;;;;;;;4.68;0.70;;;;;;;8.61;83.05;99042.88;8339495;28;20036;-55
2023/01/15 03:25:50;;;;;;;2.45;0.65;;;;;;;8.63;82.32;99045.41;8338946;28;20033;-55
2023/01/15 03:29:59;;;;;;;1.42;0.50;;;;;;;8.58;82.09;99045.91;8339363;28;20052;-55
2023/01/15 03:34:01;;;;;;;2.67;0.43;;;;;;;8.57;82.03;99046.06;8338888;28;20044;-55
2023/01/15 03:38:02;;;;;;;2.85;0.50;;;;;;;8.55;82.10;99029.22;8339348;28;20091;-58
2023/01/15 03:42:31;;;;;;;4.13;0.60;;;;;;;8.52;82.46;99030.41;8339262;28;20037;-59
2023/01/15 03:50:51;;;;;;;2.75;0.70;;;;;;;8.45;82.28;99034.72;8354376;27;20777;-58
2023/01/15 03:55:03;;;;;;;2.60;0.40;;;;;;;8.44;82.22;99053.75;8350482;28;20116;-58
2023/01/15 03:59:15;;;;;;;2.28;0.47;;;;;;;8.46;82.35;99047.22;8350669;28;20037;-59
2023/01/15 04:03:26;;;;;;;6.35;0.73;;;;;;;8.51;83.41;99054.81;8350574;28;20037;-59
2023/01/15 04:07:27;;;;;;;8.02;0.77;;;;;;;8.48;83.24;99030.88;8350028;28;20037;-59
2023/01/15 04:11:27;;;;;;;5.18;0.80;;;;;;;8.50;83.50;99036.94;8350324;28;20047;-58
2023/01/15 04:15:34;;;;;;;2.45;0.50;;;;;;;8.49;83.83;99029.88;8350063;28;20038;-59
2023/01/15 04:19:36;;;;;;;5.85;0.90;;;;;;;8.45;84.16;99023.13;8350429;28;20091;-56
2023/01/15 04:23:40;;;;;;;6.07;1.00;;;;;;;8.49;83.79;99046.03;8349983;28;20045;-59
2023/01/15 04:27:40;;;;;;;7.53;1.05;;;;;;;8.49;84.47;99051.41;8316747;28;20171;-57
2023/01/15 04:31:40;;;;;;;7.22;0.73;;;;;;;8.50;83.77;99053.09;8316797;28;20060;-60
2023/01/15 04:35:41;;;;;;;3.70;0.68;;;;;;;8.47;84.28;99048.88;8316096;28;20037;-59
2023/01/15 04:39:42;;;;;;;7.07;0.77;;;;;;;8.48;83.03;99049.75;8349609;28;20037;-58
2023/01/15 04:44:14;;;;;;;4.63;0.95;;;;;;;8.48;82.52;99055.13;8349147;28;20041;-59
2023/01/15 04:48:03;;;;;;;5.50;0.73;;;;;;;8.57;81.43;99048.75;8348360;28;20398;-59
2023/01/15 04:52:04;;;;;;;12.07;0.90;;;;;;;8.58;81.61;99061.22;8334204;28;20125;-60
2023/01/15 04:56:05;;;;;;;5.15;0.93;;;;;;;8.52;82.74;99051.09;8356040;28;20033;-58
2023/01/15 05:00:06;;;;;;;6.07;0.60;;;;;;;8.54;82.66;99049.09;8337495;28;20060;-56
2023/01/15 05:04:07;;;;;;;4.57;0.50;;;;;;;8.52;83.22;99064.56;8306491;28;20040;-60
2023/01/15 05:08:07;;;;;;;6.30;0.52;;;;;;;8.55;82.72;99072.31;8323766;28;20037;-58
2023/01/15 05:12:08;;;;;;;7.35;1.27;;;;;;;8.61;82.01;99060.88;8324658;28;20049;-55
2023/01/15 05:16:13;;;;;;;5.80;1.30;;;;;;;8.62;80.95;99057.16;8323345;28;20043;-53
2023/01/15 05:20:14;;;;;;;3.85;0.88;;;;;;;8.58;81.59;99062.06;8296344;28;20034;-54
2023/01/15 05:24:16;;;;;;;6.43;0.90;;;;;;;8.59;80.63;99074.50;8293289;28;20048;-55
2023/01/15 05:28:18;;;;;;;6.20;0.70;;;;;;;8.55;80.64;99070.47;8292861;28;20038;-55
2023/01/15 05:32:18;;;;;;;3.28;0.70;;;;;;;8.54;81.05;99070.63;8306157;28;20041;-54
2023/01/15 05:36:21;;;;;;;5.60;1.15;;;;;;;8.53;80.98;99074.31;8324854;28;20095;-55
2023/01/15 05:40:22;;;;;;;5.90;1.05;;;;;;;8.51;82.30;99079.84;8325460;28;20036;-58
2023/01/15 05:44:26;;;;;;;6.15;0.65;;;;;;;8.41;83.93;99065.69;8323807;28;20054;-59
2023/01/15 05:48:26;;;;;;;3.70;1.08;;;;;;;8.33;83.98;99041.44;8312221;28;20038;-57
2023/01/15 05:52:27;;;;;;;7.25;0.85;;;;;;;8.30;84.69;99038.22;8292751;28;20052;-58
2023/01/15 05:56:27;;;;;;;10.23;1.05;;;;;;;8.28;85.17;99054.53;8320377;28;20064;-56
2023/01/15 06:00:27;;;;;;;9.02;1.08;;;;;;;8.25;85.37;99049.47;8322867;28;20041;-58
2023/01/15 06:04:28;;;;;;;6.85;1.02;;;;;;;8.25;85.72;99054.00;8298925;28;20434;-58
2023/01/15 06:08:29;;;;;;;3.28;0.90;;;;;;;8.23;85.66;99061.41;8325008;28;20036;-54
2023/01/15 06:12:31;;;;;;;3.15;0.70;;;;;;;8.21;85.30;99063.38;8323714;28;20030;-54
2023/01/15 06:16:32;;;;;;;6.75;0.70;;;;;;;8.16;85.01;99071.09;8323952;28;20514;-54
2023/01/15 06:20:37;;;;;;;4.32;0.77;;;;;;;8.17;84.42;99072.81;8324504;28;20442;-56
2023/01/15 06:24:38;;;;;;;1.42;0.52;;;;;;;8.17;84.00;99079.00;8323853;28;20044;-54
2023/01/15 06:28:39;;;;;;;5.82;0.57;;;;;;;8.20;83.85;99088.63;8322800;28;20134;-55
2023/01/15 06:32:39;;;;;;;3.33;0.40;;;;;;;8.26;83.88;99093.41;8314259;28;20132;-54
2023/01/15 06:36:40;;;;;;;6.18;0.52;;;;;;;8.23;84.31;99099.09;8301980;28;20050;-53
2023/01/15 06:40:40;;;;;;;4.40;0.40;;;;;;;8.20;85.53;99094.00;8312147;28;20044;-55
2023/01/15 06:49:01;;;;;;;6.35;2.15;;;;;;;8.19;85.94;99090.47;8315109;28;20044;-54
2023/01/15 06:53:02;;;;;;;2.83;0.45;;;;;;;8.19;86.22;99089.59;8307045;28;20064;-56
2023/01/15 06:57:02;;;;;;;4.53;0.80;;;;;;;8.17;86.63;99099.72;8321576;28;20041;-53
2023/01/15 07:01:09;;;;;;;5.97;0.70;;;;;;;8.18;86.44;99101.38;8322403;28;20038;-54
2023/01/15 07:05:10;;;;;;;4.53;0.68;;;;;;;8.16;86.15;99111.47;8302637;28;20038;-54
2023/01/15 07:09:11;;;;;;;5.90;0.75;;;;;;;8.17;85.86;99116.69;8312652;28;20037;-55
2023/01/15 07:13:11;;;;;;;3.78;0.60;;;;;;;8.19;86.15;99124.59;8319263;28;20041;-54
2023/01/15 07:17:12;;;;;;;2.22;0.90;;;;;;;8.17;86.13;99132.84;8319063;28;20487;-55
2023/01/15 07:21:12;;;;;;;5.95;0.90;;;;;;;8.15;87.15;99131.31;8317611;28;20045;-56
2023/01/15 07:25:13;;;;;;;3.63;0.55;;;;;;;8.07;86.66;99137.50;8319625;28;20065;-55
2023/01/15 07:29:14;;;;;;;4.55;0.70;;;;;;;8.05;86.17;99129.56;8320071;28;20499;-55
2023/01/15 07:33:15;;;;;;;2.15;0.40;;;;;;;8.05;85.97;99152.94;8318133;28;20132;-54
2023/01/15 07:37:15;;;;;;;3.25;0.50;;;;;;;8.02;85.63;99151.41;8318353;28;20033;-54
2023/01/15 07:50:00;;;;;;;3.15;0.50;;;;;;;7.99;85.23;99189.41;8315336;28;20041;-56
2023/01/15 07:54:00;;;;;;;1.00;0.40;;;;;;;7.95;86.55;99204.19;8314318;28;20579;-58
2023/01/15 07:58:02;;;;;;;8.65;0.90;;;;;;;7.57;91.22;99223.34;8311939;28;20455;-59
2023/01/15 08:02:03;;;;;;;4.05;0.55;;;;;;;7.35;91.52;99226.47;8315907;28;20038;-56
2023/01/15 08:06:03;;;;;;;1.95;0.68;;;;;;;7.04;95.11;99233.16;8318932;28;20068;-57
2023/01/15 08:10:04;;;;;;;1.90;0.60;;;;;;;6.96;96.94;99240.31;8317359;28;20034;-58
2023/01/15 08:15:12;;;;;;;4.40;0.60;;;;;;;6.61;98.14;99241.00;8312474;28;20050;-59
2023/01/15 08:18:25;;;;;;;5.10;0.30;;;;;;;6.42;99.40;99230.34;8312721;28;20037;-59
2023/01/15 08:22:25;;;;;;;3.03;0.75;;;;;;;6.36;98.71;99238.97;8318309;28;20278;-58
2023/01/15 08:26:26;;;;;;;3.75;0.70;;;;;;;6.35;98.11;99247.16;8316310;28;20072;-56
2023/01/15 08:30:26;;;;;;;3.53;0.35;;;;;;;6.27;98.62;99241.66;8311970;28;20064;-57
2023/01/15 08:34:27;;;;;;;3.17;0.60;;;;;;;6.23;98.40;99235.75;8301672;28;20120;-56
2023/01/15 08:38:27;;;;;;;1.17;0.30;;;;;;;6.19;99.03;99228.97;8320707;28;20037;-59
2023/01/15 08:42:28;;;;;;;2.47;0.43;;;;;;;6.26;100.00;99235.47;8310889;28;20068;-59
2023/01/15 08:46:28;;;;;;;1.88;0.60;;;;;;;6.39;100.00;99236.00;8311844;28;20040;-56
2023/01/15 08:50:29;;;;;;;2.50;0.80;;;;;;;6.56;100.00;99234.41;8337284;28;20545;-57
2023/01/15 08:54:30;;;;;;;3.83;1.02;;;;;;;6.77;100.00;99235.03;8328477;28;20040;-58
2023/01/15 08:58:31;;;;;;;4.63;0.70;;;;;;;7.03;98.78;99228.81;8293828;28;20064;-58
2023/01/15 09:02:32;;;;;;;4.05;1.50;;;;;;;7.24;95.92;99240.16;8301530;28;20085;-59
2023/01/15 09:06:32;;;;;;;3.13;1.00;;;;;;;7.39;94.05;99237.78;8325284;28;20091;-58
2023/01/15 09:10:33;;;;;;;6.43;0.90;;;;;;;7.46;92.77;99234.31;8324874;28;20045;-58
2023/01/15 09:14:34;;;;;;;5.65;0.80;;;;;;;7.52;91.26;99232.88;8325757;28;20074;-59
2023/01/15 09:18:37;;;;;;;3.50;0.90;;;;;;;7.51;90.23;99237.38;8319575;28;20038;-58
2023/01/15 09:22:38;;;;;;;5.67;1.50;;;;;;;7.52;89.63;99222.97;8328677;28;20037;-59
2023/01/15 09:26:39;;;;;;;5.78;1.38;;;;;;;7.52;88.74;99227.50;8323739;28;20041;-58
2023/01/15 09:30:39;;;;;;;3.08;0.80;;;;;;;7.55;88.55;99230.72;8307258;28;20042;-57
2023/01/15 09:34:40;;;;;;;3.58;0.88;;;;;;;7.65;87.85;99227.94;8325081;28;20242;-58
2023/01/15 09:38:40;;;;;;;8.85;0.90;;;;;;;8.90;83.69;99213.03;8306469;28;20061;-57
2023/01/15 09:42:50;;;;;;;6.30;0.80;;;;;;;11.25;74.63;99222.63;8315133;28;20409;-56
2023/01/15 09:47:28;;;;;;;6.28;0.80;;;;;;;12.07;69.31;99231.97;8310242;28;20038;-58
2023/01/15 09:51:48;;;;;;;8.70;1.05;;;;;;;11.75;69.65;99233.88;8317844;28;20046;-55
2023/01/15 09:55:49;;;;;;;4.28;0.90;;;;;;;12.58;67.74;99215.75;8319619;28;20049;-56
2023/01/15 09:59:53;;;;;;;5.65;1.13;;;;;;;13.12;64.56;99214.44;8329858;28;20528;-58
2023/01/15 10:04:28;;;;;;;4.28;1.00;;;;;;;13.31;64.08;99229.31;8321910;28;20041;-58
2023/01/15 10:08:35;;;;;;;7.97;1.00;;;;;;;13.11;63.08;99222.78;8335499;28;20079;-55
2023/01/15 10:12:38;;;;;;;7.13;0.95;;;;;;;13.08;63.95;99229.44;8304175;28;20410;-56
2023/01/15 10:16:39;;;;;;;5.53;1.38;;;;;;;13.43;62.78;99227.81;8309067;28;20595;-58
2023/01/15 10:21:19;;;;;;;5.55;0.98;;;;;;;13.42;62.27;99243.25;8302643;28;20408;-58
2023/01/15 10:25:26;;;;;;;6.32;1.20;;;;;;;12.98;61.62;99245.13;8317701;28;20124;-54
2023/01/15 10:29:50;;;;;;;6.30;0.80;;;;;;;13.14;61.88;99244.13;8316369;28;20034;-54
2023/01/15 10:34:20;;;;;;;7.93;1.27;;;;;;;13.32;61.68;99247.28;8316573;28;20336;-54
2023/01/15 10:38:34;;;;;;;3.30;0.95;;;;;;;13.20;61.15;99251.50;8315024;28;20045;-53
2023/01/15 10:43:06;;;;;;;6.18;0.88;;;;;;;13.32;61.66;99253.56;8316923;28;20447;-53
2023/01/15 10:47:14;;;;;;;4.03;0.80;;;;;;;13.46;61.40;99254.59;8315328;28;20407;-54
2023/01/15 10:51:18;;;;;;;6.40;1.48;;;;;;;13.10;61.21;99250.97;8315212;28;20087;-54
2023/01/15 10:55:22;;;;;;;;;;;;;;;13.07;61.07;99263.03;8314710;28;20048;-54
2023/01/15 10:59:37;;;;;;;3.60;0.73;;;;;;;12.75;61.53;99259.81;8313771;28;20469;-54
2023/01/15 11:03:40;;;;;;;5.32;0.85;;;;;;;12.38;62.44;99257.13;8311878;28;20078;-57
2023/01/15 11:07:45;;;;;;;4.38;0.60;;;;;;;11.96;63.58;99265.75;8312895;28;20136;-57
2023/01/15 11:20:46;;;;;;;8.48;1.50;;;;;;;11.88;63.58;99269.34;8323097;28;20530;-59
2023/01/15 11:24:54;;;;;;;2.92;0.85;;;;;;;12.24;63.21;99263.31;8322401;28;20042;-57
2023/01/15 11:28:57;;;;;;;8.57;1.00;;;;;;;11.72;64.45;99277.53;8314503;28;20037;-54
2023/01/15 11:33:02;;;;;;;6.32;1.02;;;;;;;12.16;63.22;99280.47;8311358;28;20388;-58
2023/01/15 11:37:04;;;;;;;5.40;1.02;;;;;;;11.99;64.01;99272.66;8340310;28;20041;-58
2023/01/15 11:41:05;;;;;;;7.53;1.13;;;;;;;11.43;65.78;99271.94;8317509;28;20041;-58
2023/01/15 11:50:44;;;;;;;6.82;0.85;;;;;;;9.92;70.17;99265.75;8329049;28;20044;-58
2023/01/15 11:54:03;;;;;;;7.15;1.20;;;;;;;9.73;70.92;99260.69;8324741;28;20038;-58
2023/01/15 11:58:08;;;;;;;7.97;1.20;;;;;;;10.47;68.27;99236.25;8338917;28;20044;-59
2023/01/15 12:02:24;;;;;;;6.65;0.80;;;;;;;10.30;69.87;99232.72;8332625;28;20052;-59
2023/01/15 12:06:26;;;;;;;4.20;1.25;;;;;;;9.85;71.46;99226.94;8333462;28;20491;-58
2023/01/15 12:11:15;;;;;;;4.25;0.68;;;;;;;9.49;71.12;99229.06;8341749;28;20037;-59
2023/01/15 12:15:17;;;;;;;4.35;0.77;;;;;;;10.13;70.68;99235.59;8337863;28;20045;-56
2023/01/15 12:19:33;;;;;;;3.80;0.80;;;;;;;10.89;66.99;99228.72;8310711;28;20053;-59
2023/01/15 12:24:03;;;;;;;3.40;0.95;;;;;;;10.94;67.03;99246.09;8313242;28;20045;-59
2023/01/15 12:28:14;;;;;;;5.05;0.80;;;;;;;11.48;65.15;99237.06;8303993;28;20052;-59
2023/01/15 12:32:21;;;;;;;6.78;1.00;;;;;;;10.42;67.58;99231.34;8301303;28;20407;-54
2023/01/15 12:36:33;;;;;;;6.47;1.00;;;;;;;11.16;66.79;99220.16;8321642;28;20078;-58
2023/01/15 12:40:43;;;;;;;6.43;0.70;;;;;;;11.01;65.39;99224.63;8323174;28;20056;-59
2023/01/15 12:45:06;;;;;;;3.78;0.90;;;;;;;10.51;68.06;99230.31;8311248;28;20332;-59
2023/01/15 12:49:41;;;;;;;4.50;1.02;;;;;;;10.01;69.18;99208.88;8309574;28;20045;-58
2023/01/15 12:53:48;;;;;;;4.18;0.98;;;;;;;9.89;71.63;99212.09;8309352;28;20531;-54
2023/01/15 12:57:52;;;;;;;3.17;0.75;;;;;;;9.89;70.71;99212.09;8322073;28;20038;-60
2023/01/15 13:02:29;;;;;;;5.45;0.93;;;;;;;9.95;70.13;99224.94;8319067;28;20033;-54
2023/01/15 13:06:31;;;;;;;9.50;1.10;;;;;;;9.89;71.29;99218.31;8320727;28;20053;-59
2023/01/15 13:10:35;;;;;;;3.45;0.68;;;;;;;9.87;70.77;99224.91;8321570;28;20054;-59
2023/01/15 13:14:36;;;;;;;1.73;0.60;;;;;;;9.87;71.63;99214.13;8320672;28;20044;-55
2023/01/15 13:18:50;;;;;;;8.38;1.17;;;;;;;9.78;72.03;99215.13;8319940;28;20621;-58
2023/01/15 13:23:00;;;;;;;7.32;0.90;;;;;;;9.82;70.13;99201.13;8320766;28;20116;-60
2023/01/15 13:36:16;;;;;;;4.90;0.88;;;;;;;9.75;68.37;99220.84;8363249;27;20364;-54
2023/01/15 13:40:27;;;;;;;7.53;0.70;;;;;;;9.70;68.99;99218.66;8375197;28;20623;-53
2023/01/15 13:44:35;;;;;;;2.47;0.60;;;;;;;9.70;69.52;99224.06;8374442;28;20155;-53
2023/01/15 13:48:47;;;;;;;4.25;0.85;;;;;;;9.75;70.42;99234.34;8366133;28;20095;-56
2023/01/15 13:52:48;;;;;;;4.43;0.70;;;;;;;9.73;70.19;99245.31;8392628;28;20413;-54
2023/01/15 13:56:48;;;;;;;5.53;0.95;;;;;;;9.86;69.16;99229.47;8348657;28;20064;-55
2023/01/15 14:01:00;;;;;;;4.10;0.70;;;;;;;9.89;68.93;99244.50;8338048;28;20084;-55
2023/01/15 14:05:23;;;;;;;3.45;0.45;;;;;;;9.66;69.04;99247.00;8344042;28;20056;-55
2023/01/15 14:09:30;;;;;;;4.57;0.68;;;;;;;9.65;69.98;99231.81;8340808;28;20387;-56
2023/01/15 14:13:45;;;;;;;2.60;0.70;;;;;;;9.62;70.28;99247.50;8320475;28;20041;-54
2023/01/15 14:18:13;;;;;;;3.53;0.90;;;;;;;9.51;70.37;99254.03;8344095;28;20048;-54
2023/01/15 14:22:53;;;;;;;6.53;0.80;;;;;;;9.53;68.72;99259.28;8338912;28;20148;-54
2023/01/15 14:27:22;;;;;;;4.68;0.55;;;;;;;9.50;69.27;99259.59;8344657;28;20071;-53
2023/01/15 14:31:37;;;;;;;2.20;0.63;;;;;;;9.43;69.89;99258.56;8331620;28;20127;-56
2023/01/15 14:35:44;;;;;;;4.55;1.13;;;;;;;9.40;70.06;99267.00;8343081;28;20048;-55
2023/01/15 14:40:02;;;;;;;4.63;0.60;;;;;;;9.38;70.48;99266.31;8314315;28;20120;-54
2023/01/15 14:44:04;;;;;;;6.30;0.93;;;;;;;9.32;70.84;99272.34;8357488;28;20037;-54
2023/01/15 14:52:28;;;;;;;4.13;0.75;;;;;;;9.28;71.87;99271.84;8331147;27;20443;-52
2023/01/15 14:56:35;;;;;;;5.25;0.80;;;;;;;9.18;72.20;99271.13;8301793;28;20038;-55
2023/01/15 15:00:41;;;;;;;3.80;0.70;;;;;;;9.09;72.81;99271.25;8330062;28;20445;-55
2023/01/15 15:04:47;;;;;;;8.98;1.20;;;;;;;8.98;74.53;99279.63;8306234;28;20060;-53
2023/01/15 15:08:51;;;;;;;6.32;0.75;;;;;;;8.87;74.02;99271.78;8297416;28;20357;-55
2023/01/15 15:13:26;;;;;;;6.03;0.98;;;;;;;8.83;73.13;99275.81;8313504;28;20041;-54
2023/01/15 15:21:52;;;;;;;5.72;1.60;;;;;;;8.65;74.99;99283.13;8384361;27;20936;-55
2023/01/15 15:25:58;;;;;;;2.92;0.70;;;;;;;8.52;75.81;99290.78;8376462;28;20249;-55
2023/01/15 15:30:10;;;;;;;5.95;0.95;;;;;;;8.54;75.79;99283.41;8363136;28;20679;-54
2023/01/15 15:34:21;;;;;;;3.38;0.60;;;;;;;8.73;74.63;99275.09;8385133;28;20041;-54
2023/01/15 15:38:23;;;;;;;4.47;0.70;;;;;;;8.84;73.65;99269.44;8378032;28;20530;-52
2023/01/15 15:51:35;;;;;;;5.13;0.70;;;;;;;8.61;74.63;99287.13;8360391;28;20068;-54
2023/01/15 15:55:41;;;;;;;2.33;0.77;;;;;;;8.68;74.10;99278.28;8377707;28;20515;-55
2023/01/15 15:59:51;;;;;;;2.55;1.05;;;;;;;8.81;73.37;99291.31;8378284;28;20075;-54
2023/01/15 16:03:51;;;;;;;5.47;0.85;;;;;;;8.91;71.98;99283.97;8376374;28;20037;-51
2023/01/15 16:07:55;;;;;;;3.03;0.73;;;;;;;8.90;72.09;99277.72;8378312;28;20045;-53
2023/01/15 16:12:05;;;;;;;3.50;0.75;;;;;;;8.93;71.61;99276.53;8374747;28;20044;-53
2023/01/15 16:16:08;;;;;;;3.63;0.63;;;;;;;8.94;71.65;99275.56;8379178;28;20041;-55
2023/01/15 16:20:15;;;;;;;1.30;0.55;;;;;;;8.91;72.16;99287.47;8360440;28;20506;-54
2023/01/15 16:24:26;;;;;;;3.58;0.80;;;;;;;8.96;71.25;99276.22;8368215;28;20125;-54
2023/01/15 16:28:36;;;;;;;6.18;0.88;;;;;;;9.00;70.46;99261.44;8356870;28;20041;-55
2023/01/15 16:32:38;;;;;;;5.20;0.70;;;;;;;8.94;70.70;99273.69;8335693;28;20038;-55
2023/01/15 16:36:41;;;;;;;5.85;1.02;;;;;;;8.81;71.61;99288.63;8348319;28;20037;-55
2023/01/15 16:40:45;;;;;;;2.92;0.70;;;;;;;8.72;72.12;99279.63;8355360;28;20072;-54
2023/01/15 16:44:53;;;;;;;2.33;0.90;;;;;;;8.65;72.30;99283.13;8354774;28;20036;-55
2023/01/15 16:49:18;;;;;;;4.55;0.75;;;;;;;8.64;72.95;99292.22;8355698;28;20032;-59
2023/01/15 16:53:39;;;;;;;2.70;0.60;;;;;;;8.69;73.32;99281.81;8340317;28;20063;-59
2023/01/15 16:57:41;;;;;;;5.15;0.80;;;;;;;8.76;72.98;99288.25;8354324;28;20480;-57
2023/01/15 17:01:45;;;;;;;4.40;0.75;;;;;;;8.74;73.12;99284.88;8353439;28;20037;-58
2023/01/15 17:05:48;;;;;;;2.00;0.57;;;;;;;8.65;73.97;99296.59;8345371;28;20037;-58
2023/01/15 17:09:52;;;;;;;4.75;0.95;;;;;;;8.68;73.50;99301.66;8350194;28;20045;-57
2023/01/15 17:14:08;;;;;;;4.50;0.77;;;;;;;8.68;74.41;99304.34;8344492;28;20029;-57
2023/01/15 17:18:20;;;;;;;5.72;0.82;;;;;;;8.71;74.81;99306.72;8347227;28;20121;-60
2023/01/15 17:22:26;;;;;;;6.38;0.80;;;;;;;8.73;74.73;99307.44;8349164;28;20098;-59
2023/01/15 17:26:27;;;;;;;1.80;0.85;;;;;;;8.72;75.17;99325.44;8348175;28;20044;-57
2023/01/15 17:30:30;;;;;;;3.85;0.80;;;;;;;8.67;75.93;99324.22;8353379;28;20059;-57
2023/01/15 17:34:32;;;;;;;4.75;1.25;;;;;;;8.65;76.28;99320.84;8346070;28;20058;-57
2023/01/15 17:38:32;;;;;;;12.25;4.20;;;;;;;8.59;76.95;99324.16;8350145;28;20041;-59
2023/01/15 17:42:33;;;;;;;4.68;1.35;;;;;;;8.59;76.56;99321.47;8351187;28;20076;-57
2023/01/15 17:46:34;;;;;;;5.65;1.98;;;;;;;8.63;77.28;99320.16;8350496;28;20051;-59
2023/01/15 17:50:35;;;;;;;2.58;0.98;;;;;;;8.62;76.44;99318.44;8351657;28;20533;-60
2023/01/15 18:07:42;;;;;;;3.17;0.75;;;;;;;8.44;77.30;99306.88;8341862;28;20533;-59
2023/01/15 18:11:43;;;;;;;6.60;1.20;;;;;;;8.39;78.05;99310.06;8333668;28;20041;-58
2023/01/15 18:15:44;;;;;;;6.57;0.80;;;;;;;8.39;77.42;99304.69;8345565;28;20398;-60
2023/01/15 18:19:44;;;;;;;5.82;1.02;;;;;;;8.28;77.31;99295.97;8344450;28;20060;-59
2023/01/15 18:23:45;;;;;;;2.95;1.00;;;;;;;8.25;77.30;99288.22;8349518;28;20041;-58
2023/01/15 18:27:46;;;;;;;4.18;1.75;;;;;;;8.20;77.42;99288.66;8348114;28;20041;-59
2023/01/15 18:31:47;;;;;;;4.32;1.00;;;;;;;8.19;77.04;99286.09;8349105;28;20483;-57
2023/01/15 18:35:48;;;;;;;4.97;1.00;;;;;;;8.19;76.90;99296.88;8333094;28;20426;-57
2023/01/15 18:39:48;;;;;;;4.93;1.40;;;;;;;8.07;77.80;99283.69;8348026;28;20112;-60
2023/01/15 18:48:09;;;;;;;2.20;0.85;;;;;;;8.02;77.57;99280.59;8340664;28;20055;-59
2023/01/15 18:53:12;;;;;;;4.90;0.88;;;;;;;7.94;77.42;99277.81;8345615;28;20044;-60
2023/01/15 18:56:39;;;;;;;4.70;0.73;;;;;;;7.86;77.40;99275.06;8329969;28;20418;-57
2023/01/15 19:00:39;;;;;;;1.80;0.57;;;;;;;7.77;78.17;99269.75;8311560;28;20049;-56
2023/01/15 19:04:40;;;;;;;4.65;1.38;;;;;;;7.70;78.29;99269.53;8317225;28;20103;-56
2023/01/15 19:08:41;;;;;;;5.53;1.13;;;;;;;7.73;77.75;99268.38;8333380;28;20107;-55
2023/01/15 19:12:43;;;;;;;6.47;1.25;;;;;;;7.54;79.24;99269.34;8335556;28;20049;-59
2023/01/15 19:21:06;;;;;;;2.85;0.70;;;;;;;7.59;78.91;99250.94;8317647;28;20418;-59
2023/01/15 19:25:07;;;;;;;4.25;0.70;;;;;;;7.64;79.03;99256.69;8329091;28;20064;-58
2023/01/15 19:29:07;;;;;;;6.18;0.85;;;;;;;7.73;79.18;99250.41;8318547;28;20045;-59
2023/01/15 19:33:08;;;;;;;6.85;0.90;;;;;;;7.85;78.99;99235.72;8320058;28;20050;-58
2023/01/15 19:37:09;;;;;;;5.32;1.13;;;;;;;7.88;79.46;99224.66;8327258;28;20498;-54
2023/01/15 19:50:23;;;;;;;9.55;1.38;;;;;;;8.02;78.68;99221.38;8349912;28;20045;-55
2023/01/15 19:54:13;;;;;;;3.25;1.23;;;;;;;8.04;78.49;99214.00;8349653;28;20054;-52
2023/01/15 19:58:14;;;;;;;5.95;1.00;;;;;;;7.99;78.94;99216.31;8334228;28;20041;-54
2023/01/15 20:02:16;;;;;;;7.18;1.08;;;;;;;7.93;79.38;99203.50;8331927;28;20041;-55
2023/01/15 20:06:17;;;;;;;6.18;1.30;;;;;;;7.91;79.42;99186.69;8357415;28;20041;-53
2023/01/15 20:10:21;;;;;;;5.38;1.25;;;;;;;7.93;79.49;99195.41;8336350;28;20546;-53
2023/01/15 20:14:21;;;;;;;6.88;1.27;;;;;;;8.02;79.32;99188.25;8339052;28;20049;-55
2023/01/15 20:18:22;;;;;;;3.92;0.70;;;;;;;8.04;79.18;99176.34;8338232;28;20112;-58
2023/01/15 20:22:25;;;;;;;5.93;1.10;;;;;;;7.80;81.00;99165.38;8333390;28;20120;-59
2023/01/15 20:26:26;;;;;;;7.07;1.50;;;;;;;7.71;81.33;99158.25;8338862;28;20048;-56
2023/01/15 20:30:27;;;;;;;3.72;0.88;;;;;;;7.65;81.99;99148.13;8350343;28;20409;-59
2023/01/15 20:34:30;;;;;;;5.70;1.38;;;;;;;7.67;81.89;99145.28;8355293;28;20072;-55
2023/01/15 20:38:30;;;;;;;5.38;1.20;;;;;;;7.65;81.93;99142.75;8354748;28;20041;-56
2023/01/15 20:46:51;;;;;;;6.43;1.10;;;;;;;7.72;81.60;99126.84;8341040;28;20434;-58
2023/01/15 20:51:07;;;;;;;6.60;1.20;;;;;;;7.80;81.17;99141.19;8352544;28;20041;-60
2023/01/15 20:55:07;;;;;;;3.85;1.20;;;;;;;7.83;81.59;99132.78;8350928;28;20045;-58
2023/01/15 20:59:08;;;;;;;5.50;0.93;;;;;;;7.86;82.73;99134.31;8353904;28;20051;-59
2023/01/15 21:03:10;;;;;;;3.55;1.08;;;;;;;7.80;83.72;99122.34;8353114;28;20045;-58
2023/01/15 21:07:10;;;;;;;7.40;1.45;;;;;;;7.84;83.77;99104.06;8353236;28;20534;-59